Wykoff, Minnesota
Current Conditions -  °F | °C
As of 2:15 AM on Friday 24 Oct 2014 (Local Time) from KFKA Reporting Station
Moderate Fog Moderate Fog  
Wind Chill: 45°   Ceiling: 200
Heat Index: 49°   Visibility: 0.25mi
Dew Point: 48°   Wind: 8mph
Humidity: 97%   Direction: 200°SSW
Pressure: 30.03"   Gusts: NA
Location:  43.71°N, 92.27°W
Report Text: KFKA 240715Z AUTO 20007KT 1/4SM FG OVC002 09/09 A3003 RMK AO2 T00930089
Loading
Personal Weather Stations






























Interactive Weather Map
Tropical Storm Tracking
New forecast layout! Learn more

10-Day Weather Forecast

Advertisements
Track Severe Weather on mobile